Terminal Aerodrome Forecast
Issued by NWS

Home | Current Version | Previous Version | Text Only | Print | Product List | Glossary On
Versions: 1 2 3 4 5 6 7 8 9 10 11 12
000
FTUS46 KSGX 291739
TAFTRM
TAF
KTRM 291739Z 2918/3018 VRB05KT P6SM SKC
     FM292000 14010KT P6SM SKC
     FM300100 VRB06KT P6SM SKC=

USA.gov is the U.S. government's official web portal to all federal, state and local government web resources and services.